Time;durP1;ratioP1;P1;durP2;ratioP2;P2;SDS_P1;SDS_P2;PMS_P1;PMS_P2;Temp;Humidity;BMP_temperature;BMP_pressure;BME280_temperature;BME280_humidity;BME280_pressure;Samples;Min_cycle;Max_cycle;Signal;HPM_P1;HPM_P2
2021/09/17 00:00:39;;;;;;;19.30;12.32;;;;;;;21.69;70.90;98669.75;5134244;27;20047;-91
2021/09/17 00:03:05;;;;;;;21.85;13.38;;;;;;;21.60;70.82;98638.81;5140390;27;20039;-91
2021/09/17 00:05:32;;;;;;;21.58;12.60;;;;;;;21.70;70.77;98661.50;5135900;27;20046;-94
2021/09/17 00:07:58;;;;;;;19.08;12.35;;;;;;;21.62;71.29;98642.28;5132866;27;20126;-91
2021/09/17 00:10:24;;;;;;;21.38;13.02;;;;;;;21.67;71.67;98647.34;5136797;27;20543;-91
2021/09/17 00:12:52;;;;;;;18.05;13.25;;;;;;;21.69;72.16;98640.84;5140305;27;20487;-91
2021/09/17 00:15:19;;;;;;;25.23;13.25;;;;;;;21.70;72.38;98629.00;5134563;27;20031;-92
2021/09/17 00:17:47;;;;;;;22.77;13.60;;;;;;;21.70;72.19;98614.63;5141094;27;20038;-94
2021/09/17 00:20:14;;;;;;;23.57;12.93;;;;;;;21.73;72.13;98612.56;5139050;27;20043;-91
2021/09/17 00:22:41;;;;;;;21.33;14.30;;;;;;;21.76;72.46;98622.28;5136238;27;20031;-94
2021/09/17 00:25:08;;;;;;;25.23;13.45;;;;;;;21.79;72.43;98626.59;5140394;27;20031;-93
2021/09/17 00:27:35;;;;;;;22.25;13.48;;;;;;;21.77;72.44;98607.75;5144239;27;20126;-93
2021/09/17 00:30:05;;;;;;;21.55;13.55;;;;;;;21.73;72.10;98599.03;5133784;27;20043;-94
2021/09/17 00:32:31;;;;;;;24.45;13.82;;;;;;;21.83;72.64;98606.44;5137679;27;20050;-92
2021/09/17 00:34:58;;;;;;;23.60;13.50;;;;;;;21.78;73.13;98590.56;5140824;27;20114;-94
2021/09/17 00:37:24;;;;;;;24.63;13.93;;;;;;;21.79;73.37;98576.03;5141815;27;20110;-93
2021/09/17 00:39:50;;;;;;;23.73;13.80;;;;;;;21.77;73.61;98569.00;5136117;27;20129;-93
2021/09/17 00:42:16;;;;;;;23.13;14.05;;;;;;;21.83;73.79;98569.41;5136246;27;20043;-93
2021/09/17 00:44:42;;;;;;;22.92;14.15;;;;;;;21.78;73.44;98560.78;5139163;27;20038;-91
2021/09/17 00:47:09;;;;;;;23.83;14.23;;;;;;;21.78;74.00;98557.22;5136114;27;20035;-92
2021/09/17 00:49:35;;;;;;;23.83;13.80;;;;;;;21.77;73.80;98555.47;5134428;27;20088;-91
2021/09/17 00:52:02;;;;;;;21.48;13.98;;;;;;;21.75;73.99;98547.47;5135991;27;20042;-92
2021/09/17 00:54:29;;;;;;;26.77;14.15;;;;;;;21.69;74.21;98539.84;5133438;27;20043;-93
2021/09/17 00:56:55;;;;;;;23.48;14.73;;;;;;;21.72;74.26;98545.00;5136137;27;20088;-93
2021/09/17 00:59:21;;;;;;;23.92;14.57;;;;;;;21.73;74.49;98546.75;5134797;27;20046;-91
2021/09/17 01:01:47;;;;;;;24.73;14.30;;;;;;;21.67;74.35;98537.25;5134371;27;20045;-92
2021/09/17 01:04:15;;;;;;;27.23;14.65;;;;;;;21.76;74.30;98540.25;5137636;27;20126;-92
2021/09/17 01:06:43;;;;;;;23.92;14.40;;;;;;;21.73;74.34;98531.38;5140936;27;20031;-93
2021/09/17 01:09:09;;;;;;;23.73;14.27;;;;;;;21.75;74.18;98533.94;5137697;27;20148;-91
2021/09/17 01:11:35;;;;;;;21.80;13.98;;;;;;;21.71;74.33;98525.22;5137980;27;20031;-92
2021/09/17 01:14:02;;;;;;;24.25;14.55;;;;;;;21.68;74.61;98532.69;5134507;27;20043;-94
2021/09/17 01:16:28;;;;;;;24.00;14.88;;;;;;;21.71;74.42;98519.78;5138614;27;20055;-92
2021/09/17 01:18:54;;;;;;;20.02;14.00;;;;;;;21.78;73.95;98520.19;5142744;27;20051;-94
2021/09/17 01:21:22;;;;;;;23.17;14.30;;;;;;;21.87;73.20;98526.72;5134499;27;20114;-93
2021/09/17 01:23:48;;;;;;;24.73;13.88;;;;;;;21.94;71.34;98514.44;5135012;27;20032;-91
2021/09/17 01:26:15;;;;;;;21.58;12.93;;;;;;;21.93;71.50;98519.00;5139039;27;20032;-93
2021/09/17 01:28:41;;;;;;;22.13;13.10;;;;;;;21.84;71.43;98505.28;5141050;27;20108;-92
2021/09/17 01:31:07;;;;;;;24.45;13.55;;;;;;;22.03;71.05;98526.41;5134422;27;20549;-94
2021/09/17 01:33:33;;;;;;;24.67;13.40;;;;;;;21.95;71.03;98502.63;5140617;27;20087;-92
2021/09/17 01:36:02;;;;;;;21.15;13.68;;;;;;;21.95;71.57;98514.31;5136235;27;20043;-95
2021/09/17 01:38:31;;;;;;;22.40;13.80;;;;;;;21.87;71.87;98518.63;5134059;27;20047;-93
2021/09/17 01:40:57;;;;;;;27.33;14.02;;;;;;;21.82;72.01;98527.09;5135238;27;20498;-92
2021/09/17 01:43:24;;;;;;;20.50;13.07;;;;;;;21.66;72.53;98508.44;5138875;27;20062;-93
2021/09/17 01:45:51;;;;;;;21.83;12.73;;;;;;;21.69;72.33;98510.06;5134128;27;20465;-93
2021/09/17 01:48:17;;;;;;;22.63;13.73;;;;;;;21.57;72.49;98502.88;5137350;27;20035;-90
2021/09/17 01:50:43;;;;;;;23.45;13.57;;;;;;;21.60;72.87;98517.06;5134916;27;20043;-92
2021/09/17 01:53:09;;;;;;;21.80;14.00;;;;;;;21.53;72.92;98518.47;5139561;27;20039;-92
2021/09/17 01:55:36;;;;;;;21.38;13.57;;;;;;;21.43;73.29;98510.22;5136562;27;20146;-91
2021/09/17 01:58:03;;;;;;;25.27;13.95;;;;;;;21.38;73.38;98509.66;5132776;28;20426;-94
2021/09/17 02:00:29;;;;;;;26.27;13.95;;;;;;;21.36;73.25;98508.94;5135725;27;20047;-93
2021/09/17 02:02:55;;;;;;;23.88;13.70;;;;;;;21.42;73.55;98522.00;5135458;27;20159;-93
2021/09/17 02:05:21;;;;;;;22.33;13.23;;;;;;;21.37;73.67;98507.09;5137247;27;20500;-92
2021/09/17 02:07:47;;;;;;;23.88;14.45;;;;;;;21.43;73.77;98521.03;5139003;27;20042;-92
2021/09/17 02:10:13;;;;;;;23.00;13.85;;;;;;;21.45;74.24;98510.97;5136486;27;20514;-91
2021/09/17 02:12:41;;;;;;;25.02;13.75;;;;;;;21.51;74.14;98521.31;5141306;27;20039;-92
2021/09/17 02:15:09;;;;;;;19.97;13.33;;;;;;;21.56;74.51;98512.84;5139869;27;20444;-92
2021/09/17 02:17:35;;;;;;;24.48;13.27;;;;;;;21.60;74.80;98505.34;5140054;27;20031;-93
2021/09/17 02:20:01;;;;;;;23.02;13.07;;;;;;;21.51;75.19;98505.09;5140727;27;20043;-91
2021/09/17 02:22:27;;;;;;;25.55;13.98;;;;;;;21.62;75.04;98520.50;5141024;27;20027;-94
2021/09/17 02:24:53;;;;;;;27.40;13.45;;;;;;;21.55;75.15;98511.13;5137911;27;20387;-94
2021/09/17 02:27:19;;;;;;;27.33;14.07;;;;;;;21.46;76.21;98482.06;5140861;27;20039;-94
2021/09/17 02:29:47;;;;;;;29.27;15.02;;;;;;;21.35;76.27;98472.03;5143586;27;20067;-90
2021/09/17 02:32:13;;;;;;;31.50;15.15;;;;;;;21.40;77.29;98490.59;5136632;27;20031;-92
2021/09/17 02:34:39;;;;;;;26.83;15.93;;;;;;;21.29;78.40;98494.13;5148781;27;20061;-91
2021/09/17 02:37:06;;;;;;;33.25;17.13;;;;;;;21.25;79.57;98503.44;5140883;27;20426;-92
2021/09/17 02:39:32;;;;;;;27.88;15.60;;;;;;;21.03;79.77;98488.81;5146359;27;20062;-88
2021/09/17 02:41:58;;;;;;;26.30;15.25;;;;;;;20.96;79.77;98471.34;5135471;27;20035;-92
2021/09/17 02:44:24;;;;;;;25.60;13.75;;;;;;;20.95;80.10;98479.56;5139641;27;20393;-92
2021/09/17 02:46:52;;;;;;;28.45;15.75;;;;;;;21.01;80.16;98496.19;5140504;27;20043;-92
2021/09/17 02:49:18;;;;;;;30.67;14.55;;;;;;;21.00;79.97;98480.97;5138115;27;20047;-93
2021/09/17 02:51:46;;;;;;;28.30;15.50;;;;;;;20.98;80.16;98498.28;5139188;27;20403;-94
2021/09/17 02:54:12;;;;;;;28.13;13.82;;;;;;;21.00;80.33;98502.59;5138918;27;20036;-94
2021/09/17 02:56:37;;;;;;;24.88;13.43;;;;;;;20.97;80.34;98481.19;5143573;27;20415;-94
2021/09/17 02:59:04;;;;;;;26.50;14.35;;;;;;;20.97;80.36;98475.78;5144675;27;20038;-93
2021/09/17 03:01:30;;;;;;;27.83;13.50;;;;;;;21.00;80.45;98475.56;5137712;27;20070;-93
2021/09/17 03:03:57;;;;;;;26.42;12.75;;;;;;;21.02;80.71;98479.00;5140498;27;20047;-93
2021/09/17 03:06:23;;;;;;;26.20;13.38;;;;;;;21.09;80.32;98465.88;5139304;27;20556;-93
2021/09/17 03:08:49;;;;;;;24.70;14.32;;;;;;;21.13;80.38;98470.09;5139140;27;20047;-91
2021/09/17 03:11:15;;;;;;;23.75;13.38;;;;;;;21.02;79.96;98446.56;5142587;27;20039;-93
2021/09/17 03:13:41;;;;;;;22.58;12.82;;;;;;;21.13;80.17;98468.25;5139853;27;20043;-93
2021/09/17 03:16:08;;;;;;;25.67;13.52;;;;;;;20.99;80.57;98441.41;5138586;27;20549;-92
2021/09/17 03:18:34;;;;;;;25.67;15.20;;;;;;;21.10;80.92;98464.91;5138220;27;20043;-91
2021/09/17 03:21:02;;;;;;;31.30;16.20;;;;;;;21.07;81.27;98444.38;5135691;27;20042;-92
2021/09/17 03:23:28;;;;;;;28.70;14.63;;;;;;;21.06;81.38;98445.34;5140088;27;20119;-92
2021/09/17 03:25:54;;;;;;;26.33;15.18;;;;;;;21.06;81.04;98445.34;5137194;27;20465;-92
2021/09/17 03:28:20;;;;;;;26.02;14.43;;;;;;;21.07;81.08;98449.78;5139618;27;20046;-92
2021/09/17 03:30:46;;;;;;;30.75;15.27;;;;;;;21.01;81.63;98442.13;5137768;27;20039;-90
2021/09/17 03:33:12;;;;;;;30.35;15.25;;;;;;;21.02;81.61;98446.56;5142557;27;20046;-92
2021/09/17 03:35:39;;;;;;;27.65;15.23;;;;;;;20.98;82.38;98460.44;5138915;27;20055;-94
2021/09/17 03:38:07;;;;;;;29.55;16.10;;;;;;;20.89;82.15;98440.34;5142434;27;20087;-93
2021/09/17 03:40:33;;;;;;;30.48;16.25;;;;;;;20.81;82.52;98437.34;5145420;27;20104;-94
2021/09/17 03:42:59;;;;;;;26.73;16.58;;;;;;;20.77;83.47;98435.84;5143366;27;20053;-91
2021/09/17 03:45:25;;;;;;;31.45;15.70;;;;;;;20.69;83.69;98436.44;5142910;27;20050;-93
2021/09/17 03:47:51;;;;;;;29.20;16.65;;;;;;;20.72;84.00;98460.50;5140487;27;20039;-93
2021/09/17 03:50:17;;;;;;;32.80;16.77;;;;;;;20.66;84.05;98456.41;5141539;27;20034;-94
2021/09/17 03:52:43;;;;;;;30.00;16.75;;;;;;;20.66;84.57;98461.81;5140978;27;20047;-92
2021/09/17 03:55:11;;;;;;;27.30;16.40;;;;;;;20.65;84.22;98459.25;5140230;27;20041;-95
2021/09/17 03:57:37;;;;;;;31.50;16.95;;;;;;;20.58;84.34;98450.72;5137218;27;20043;-94
2021/09/17 04:00:04;;;;;;;30.60;17.15;;;;;;;20.55;85.00;98456.31;5136698;27;20031;-91
2021/09/17 04:02:30;;;;;;;32.28;17.80;;;;;;;20.54;85.18;98454.59;5140889;27;20042;-93
2021/09/17 04:04:56;;;;;;;33.83;18.33;;;;;;;20.52;85.78;98465.50;5138400;27;20389;-94
2021/09/17 04:07:22;;;;;;;31.50;17.25;;;;;;;20.52;85.95;98470.06;5139455;27;20039;-93
2021/09/17 04:09:48;;;;;;;35.20;17.83;;;;;;;20.46;86.09;98457.84;5136547;27;20047;-95
2021/09/17 04:12:16;;;;;;;35.08;18.13;;;;;;;20.45;86.80;98457.94;5138405;27;20035;-93
2021/09/17 04:14:42;;;;;;;34.22;18.48;;;;;;;20.46;86.62;98448.88;5135424;27;20043;-92
2021/09/17 04:17:08;;;;;;;49.95;19.75;;;;;;;20.41;87.35;98442.97;5137776;27;20035;-91
2021/09/17 04:19:36;;;;;;;35.10;19.48;;;;;;;20.39;87.43;98434.97;5134936;27;20103;-94
2021/09/17 04:22:03;;;;;;;33.00;17.98;;;;;;;20.44;87.86;98443.59;5135246;27;20095;-93
2021/09/17 04:24:29;;;;;;;37.08;19.10;;;;;;;20.42;87.69;98441.97;5139892;27;20500;-91
2021/09/17 04:26:55;;;;;;;33.08;18.50;;;;;;;20.41;88.12;98434.88;5144087;27;20095;-94
2021/09/17 04:29:22;;;;;;;32.15;18.35;;;;;;;20.48;87.93;98450.50;5141996;27;20039;-92
2021/09/17 04:31:48;;;;;;;34.55;18.85;;;;;;;20.48;87.57;98439.69;5138277;27;20099;-94
2021/09/17 04:34:15;;;;;;;35.60;18.83;;;;;;;20.55;87.64;98445.50;5141650;27;20039;-93
2021/09/17 04:36:41;;;;;;;34.22;18.48;;;;;;;20.52;87.53;98438.50;5136576;27;20062;-93
2021/09/17 04:39:07;;;;;;;30.10;17.92;;;;;;;20.56;87.58;98439.16;5137052;27;20519;-93
2021/09/17 04:41:33;;;;;;;33.63;17.70;;;;;;;20.60;87.71;98442.50;5139185;27;20054;-92
2021/09/17 04:43:59;;;;;;;31.00;16.85;;;;;;;20.54;87.50;98424.88;5137047;27;20039;-93
2021/09/17 04:46:27;;;;;;;30.25;17.75;;;;;;;20.62;86.78;98440.53;5132788;27;20104;-94
2021/09/17 04:48:53;;;;;;;37.80;18.10;;;;;;;20.64;86.75;98444.84;5134996;27;20039;-90
2021/09/17 04:51:19;;;;;;;31.23;17.58;;;;;;;20.62;86.82;98448.66;5136829;27;20100;-92
2021/09/17 04:53:45;;;;;;;36.90;17.08;;;;;;;20.59;86.62;98436.22;5138361;27;20038;-94
2021/09/17 04:56:11;;;;;;;31.77;18.02;;;;;;;20.62;86.79;98449.50;5136286;27;20531;-93
2021/09/17 04:58:37;;;;;;;33.47;17.10;;;;;;;20.66;86.85;98455.56;5140099;27;20043;-95
2021/09/17 05:01:03;;;;;;;33.50;17.77;;;;;;;20.58;86.47;98445.34;5129657;27;20080;-92
2021/09/17 05:03:31;;;;;;;31.85;17.08;;;;;;;20.60;86.87;98450.59;5137433;27;20047;-92
2021/09/17 05:05:56;;;;;;;36.33;19.33;;;;;;;20.62;86.63;98452.22;5138837;27;20039;-94
2021/09/17 05:08:22;;;;;;;31.58;17.52;;;;;;;20.65;86.40;98454.69;5135187;27;20083;-91
2021/09/17 05:10:49;;;;;;;33.70;17.30;;;;;;;20.63;86.40;98459.34;5136705;27;20046;-94
2021/09/17 05:13:15;;;;;;;36.40;19.38;;;;;;;20.62;86.34;98460.31;5135869;27;20039;-95
2021/09/17 05:15:41;;;;;;;37.88;18.67;;;;;;;20.58;87.01;98455.25;5128966;27;20039;-94
2021/09/17 05:18:07;;;;;;;36.67;18.83;;;;;;;20.53;87.17;98455.56;5135900;27;20151;-94
2021/09/17 05:20:34;;;;;;;32.55;17.75;;;;;;;20.55;87.23;98452.75;5140444;27;20071;-91
2021/09/17 05:23:00;;;;;;;35.88;18.38;;;;;;;20.60;87.30;98456.00;5139747;27;20124;-93
2021/09/17 05:25:27;;;;;;;31.05;17.60;;;;;;;20.63;87.09;98450.41;5137506;27;20055;-92
2021/09/17 05:27:53;;;;;;;32.65;17.67;;;;;;;20.62;86.70;98432.44;5136565;27;20042;-91
2021/09/17 05:30:19;;;;;;;34.95;17.83;;;;;;;20.74;86.19;98446.91;5139872;27;20106;-92
2021/09/17 05:32:45;;;;;;;30.50;17.13;;;;;;;20.80;85.92;98452.72;5138746;27;20059;-93
2021/09/17 05:35:11;;;;;;;32.35;16.38;;;;;;;20.85;85.46;98444.25;5136949;27;20122;-92
2021/09/17 05:37:39;;;;;;;41.15;17.48;;;;;;;20.87;85.05;98439.59;5137098;27;20066;-91
2021/09/17 05:40:06;;;;;;;30.70;16.90;;;;;;;20.96;84.39;98436.22;5142416;27;20479;-94
2021/09/17 05:42:32;;;;;;;34.88;16.50;;;;;;;21.04;84.11;98446.47;5137785;27;20043;-94
2021/09/17 05:44:58;;;;;;;28.23;15.95;;;;;;;21.02;83.60;98440.31;5136003;27;20035;-94
2021/09/17 05:47:24;;;;;;;31.67;16.52;;;;;;;21.02;83.10;98438.44;5142352;27;20092;-94
2021/09/17 05:49:50;;;;;;;32.67;16.88;;;;;;;21.16;83.30;98455.47;5141826;27;20043;-94
2021/09/17 05:52:17;;;;;;;35.55;17.40;;;;;;;21.09;83.42;98449.66;5141602;27;20035;-94
2021/09/17 05:54:46;;;;;;;40.50;16.55;;;;;;;21.08;82.56;98442.53;5139343;27;20042;-92
2021/09/17 05:57:12;;;;;;;37.85;16.67;;;;;;;21.23;82.79;98451.31;5141368;27;20039;-93
2021/09/17 05:59:38;;;;;;;33.70;16.33;;;;;;;21.30;81.88;98455.31;5138201;27;20067;-94
2021/09/17 06:02:06;;;;;;;27.42;14.82;;;;;;;21.34;81.15;98448.69;5134711;27;20058;-95
2021/09/17 06:04:33;;;;;;;28.25;14.80;;;;;;;21.57;79.67;98460.44;5143877;27;20047;-92
2021/09/17 06:06:59;;;;;;;33.22;14.32;;;;;;;21.68;79.04;98462.31;5139244;27;20066;-95
2021/09/17 06:09:25;;;;;;;29.23;14.45;;;;;;;21.78;78.88;98466.06;5141768;27;20035;-92
2021/09/17 06:11:52;;;;;;;35.70;14.88;;;;;;;21.73;78.36;98438.50;5141561;27;20456;-92
2021/09/17 06:14:18;;;;;;;30.52;13.63;;;;;;;21.97;77.67;98467.31;5138515;27;20063;-94
2021/09/17 06:16:44;;;;;;;32.55;14.85;;;;;;;21.90;77.14;98451.56;5138013;27;20399;-94
2021/09/17 06:19:10;;;;;;;30.50;14.13;;;;;;;22.05;76.88;98462.16;5143850;27;20039;-92
2021/09/17 06:21:37;;;;;;;34.05;14.25;;;;;;;22.09;76.59;98461.78;5137338;27;20060;-93
2021/09/17 06:24:04;;;;;;;30.55;13.60;;;;;;;22.19;75.98;98459.22;5138402;27;20035;-91
2021/09/17 06:26:31;;;;;;;30.58;12.52;;;;;;;21.95;76.20;98451.19;5141531;27;20035;-94
2021/09/17 06:29:00;;;;;;;27.73;11.68;;;;;;;21.78;76.77;98444.41;5141903;27;20038;-94
2021/09/17 06:31:26;;;;;;;29.15;12.77;;;;;;;21.77;77.67;98450.78;5140986;27;20500;-91
2021/09/17 06:33:52;;;;;;;30.15;12.70;;;;;;;21.87;77.10;98451.78;5137517;27;20039;-94
2021/09/17 06:36:18;;;;;;;29.08;11.50;;;;;;;21.99;77.12;98476.16;5140965;27;20045;-94
2021/09/17 06:38:44;;;;;;;33.03;13.80;;;;;;;22.08;76.93;98468.19;5139616;27;20162;-92
2021/09/17 06:41:10;;;;;;;26.67;12.35;;;;;;;22.19;77.02;98477.31;5139163;27;20059;-93
2021/09/17 06:43:36;;;;;;;27.15;13.57;;;;;;;22.31;76.67;98466.38;5140564;27;20154;-94
2021/09/17 06:46:04;;;;;;;30.73;14.10;;;;;;;22.51;76.09;98456.66;5142784;27;20039;-93
2021/09/17 06:48:30;;;;;;;30.27;14.43;;;;;;;22.74;75.41;98471.03;5139872;27;20130;-93
2021/09/17 06:50:57;;;;;;;29.90;14.30;;;;;;;22.69;75.37;98478.69;5143181;27;20065;-94
2021/09/17 06:53:23;;;;;;;29.52;12.95;;;;;;;23.00;74.32;98456.31;5141128;27;20667;-95
2021/09/17 06:55:49;;;;;;;30.58;13.50;;;;;;;23.43;72.59;98477.16;5141051;27;20472;-93
2021/09/17 06:58:18;;;;;;;27.77;13.55;;;;;;;23.40;72.23;98483.72;5145523;27;20039;-95
2021/09/17 07:00:44;;;;;;;24.15;12.88;;;;;;;23.45;72.27;98478.75;5144291;27;20122;-92
2021/09/17 07:03:12;;;;;;;25.38;12.77;;;;;;;23.80;70.47;98476.78;5144285;27;20069;-94
2021/09/17 07:05:39;;;;;;;27.08;12.00;;;;;;;23.57;70.40;98469.59;5134553;27;20039;-95
2021/09/17 07:08:06;;;;;;;23.88;11.88;;;;;;;23.64;70.51;98483.50;5142611;27;20042;-94
2021/09/17 07:10:34;;;;;;;28.15;11.45;;;;;;;23.53;70.15;98476.25;5138412;27;20051;-93
2021/09/17 07:13:00;;;;;;;27.38;11.30;;;;;;;23.76;68.84;98465.31;5139519;27;20039;-93
2021/09/17 07:15:27;;;;;;;22.48;11.38;;;;;;;23.74;68.36;98459.09;5140529;27;20095;-92
2021/09/17 07:17:53;;;;;;;26.15;10.65;;;;;;;23.97;67.89;98460.72;5142232;27;20046;-94
2021/09/17 07:20:21;;;;;;;24.35;10.40;;;;;;;23.94;67.39;98471.00;5139131;27;20073;-92
2021/09/17 07:22:47;;;;;;;27.80;11.13;;;;;;;23.53;68.50;98468.13;5148052;27;20043;-94
2021/09/17 07:25:14;;;;;;;27.55;10.15;;;;;;;23.53;68.71;98446.41;5139996;27;20327;-93
2021/09/17 07:27:40;;;;;;;27.50;9.75;;;;;;;24.10;67.29;98474.09;5139496;27;20103;-93
2021/09/17 07:30:07;;;;;;;27.98;10.40;;;;;;;24.07;66.05;98436.34;5145429;27;20517;-94
2021/09/17 07:32:34;;;;;;;29.20;9.57;;;;;;;24.42;65.58;98462.25;5140828;27;20051;-96
2021/09/17 07:35:00;;;;;;;21.33;8.95;;;;;;;24.57;63.64;98457.31;5142826;27;20032;-93
2021/09/17 07:37:28;;;;;;;25.42;8.80;;;;;;;24.80;62.99;98456.09;5146748;27;20067;-96
2021/09/17 07:39:54;;;;;;;23.42;9.15;;;;;;;25.04;62.32;98460.31;5138613;27;20047;-91
2021/09/17 07:42:20;;;;;;;29.27;8.18;;;;;;;25.34;61.37;98443.03;5143212;27;20061;-93
2021/09/17 07:44:46;;;;;;;26.85;8.55;;;;;;;25.67;59.64;98434.56;5146793;27;20543;-94
2021/09/17 07:47:12;;;;;;;22.38;7.75;;;;;;;26.34;58.21;98465.41;5137844;27;20070;-94
2021/09/17 07:49:40;;;;;;;28.95;8.35;;;;;;;25.46;59.06;98427.44;5139725;27;20043;-94
2021/09/17 07:52:07;;;;;;;25.20;8.50;;;;;;;25.41;59.93;98455.06;5139199;27;20043;-93
2021/09/17 07:54:35;;;;;;;21.75;7.90;;;;;;;25.25;60.53;98470.25;5137615;27;20043;-94
2021/09/17 07:57:03;;;;;;;19.30;7.78;;;;;;;25.37;59.54;98469.97;5135555;27;20061;-95
2021/09/17 07:59:29;;;;;;;21.55;6.88;;;;;;;25.24;59.71;98457.63;5139220;27;20047;-93
2021/09/17 08:01:55;;;;;;;26.67;6.88;;;;;;;25.11;59.91;98438.81;5142981;27;20103;-94
2021/09/17 08:04:21;;;;;;;23.70;6.60;;;;;;;25.28;59.90;98454.47;5140391;27;20051;-94
2021/09/17 08:06:47;;;;;;;20.00;7.07;;;;;;;25.62;57.87;98440.44;5140571;27;20031;-93
2021/09/17 08:09:13;;;;;;;19.00;6.55;;;;;;;25.57;57.91;98443.59;5135941;27;20063;-93
2021/09/17 08:11:40;;;;;;;21.63;6.97;;;;;;;25.91;57.15;98428.66;5147647;27;20039;-93
2021/09/17 08:14:07;;;;;;;22.10;6.80;;;;;;;26.46;55.53;98447.84;5140940;27;20038;-93
2021/09/17 08:16:33;;;;;;;25.65;6.53;;;;;;;26.46;55.46;98468.78;5138433;27;20039;-93
2021/09/17 08:18:59;;;;;;;18.10;6.30;;;;;;;25.73;57.41;98463.94;5137098;27;20035;-91
2021/09/17 08:21:25;;;;;;;18.10;6.75;;;;;;;25.69;57.61;98468.81;5144907;27;20537;-94
2021/09/17 08:23:51;;;;;;;18.10;6.65;;;;;;;26.17;56.35;98481.50;5140618;27;20039;-93
2021/09/17 08:26:18;;;;;;;19.00;5.90;;;;;;;26.24;55.26;98457.28;5144329;27;20354;-95
2021/09/17 08:28:46;;;;;;;16.83;5.40;;;;;;;25.99;56.00;98480.56;5143905;27;20129;-93
2021/09/17 08:31:12;;;;;;;19.17;6.57;;;;;;;25.69;57.20;98476.13;5144696;27;20055;-94
2021/09/17 08:33:38;;;;;;;20.08;6.20;;;;;;;25.73;56.71;98461.22;5146605;27;20068;-95
2021/09/17 08:36:05;;;;;;;27.80;6.90;;;;;;;25.75;56.91;98461.94;5139253;27;20042;-94
2021/09/17 08:38:31;;;;;;;21.05;6.38;;;;;;;25.96;56.33;98462.66;5144194;27;20036;-92
2021/09/17 08:40:59;;;;;;;23.27;6.32;;;;;;;26.35;54.96;98470.72;5144424;27;20092;-92
2021/09/17 08:43:26;;;;;;;22.83;7.07;;;;;;;26.03;55.26;98468.38;5139163;27;20126;-92
2021/09/17 08:45:54;;;;;;;23.85;6.50;;;;;;;25.71;56.42;98464.06;5137319;27;20042;-91
2021/09/17 08:48:26;;;;;;;19.55;6.57;;;;;;;25.86;56.36;98471.81;5145723;27;20095;-94
2021/09/17 08:50:53;;;;;;;17.25;5.60;;;;;;;25.79;56.22;98453.31;5140026;27;20049;-92
2021/09/17 08:53:19;;;;;;;15.43;5.75;;;;;;;26.20;55.63;98489.41;5136885;27;20043;-91
2021/09/17 08:55:46;;;;;;;21.90;6.00;;;;;;;26.62;53.93;98467.19;5143058;27;20468;-93
2021/09/17 08:58:13;;;;;;;18.65;5.78;;;;;;;26.56;53.63;98475.09;5138736;27;20043;-94
2021/09/17 09:00:42;;;;;;;16.77;5.95;;;;;;;26.82;53.46;98484.28;5142359;27;20043;-91
2021/09/17 09:03:10;;;;;;;20.88;4.97;;;;;;;26.98;53.00;98469.16;5146383;27;20039;-91
2021/09/17 09:05:38;;;;;;;23.23;5.20;;;;;;;27.14;52.38;98466.59;5144777;27;20040;-94
2021/09/17 09:08:05;;;;;;;22.20;5.32;;;;;;;27.18;51.94;98472.63;5145613;27;20047;-94
2021/09/17 09:10:32;;;;;;;21.83;6.13;;;;;;;26.90;52.98;98469.06;5133857;27;20039;-92
2021/09/17 09:13:01;;;;;;;23.23;6.28;;;;;;;27.12;52.71;98471.34;5142876;27;20061;-94
2021/09/17 09:15:30;;;;;;;20.42;5.97;;;;;;;26.53;53.46;98475.38;5140957;27;20047;-94
2021/09/17 09:17:58;;;;;;;19.98;5.50;;;;;;;26.95;52.41;98464.84;5141607;27;20035;-92
2021/09/17 09:20:27;;;;;;;22.00;6.25;;;;;;;26.73;52.53;98463.38;5143384;27;20071;-92
2021/09/17 09:23:12;;;;;;;30.85;6.20;;;;;;;27.32;51.01;98454.84;5141474;27;20061;-93
2021/09/17 09:25:50;;;;;;;20.52;6.10;;;;;;;27.58;50.12;98455.78;5146264;27;20031;-93
2021/09/17 09:28:18;;;;;;;29.88;6.68;;;;;;;27.20;51.72;98460.53;5142514;27;20395;-92
2021/09/17 09:30:44;;;;;;;22.23;5.88;;;;;;;26.81;52.15;98459.91;5144357;27;20465;-94
2021/09/17 09:33:27;;;;;;;17.60;5.35;;;;;;;26.46;53.16;98487.88;5142283;27;20039;-93
2021/09/17 09:36:10;;;;;;;29.48;6.68;;;;;;;26.37;53.52;98474.16;5145279;27;20039;-92
2021/09/17 09:38:40;;;;;;;25.35;6.65;;;;;;;25.98;53.68;98463.38;5146550;27;20503;-94
2021/09/17 09:41:08;;;;;;;22.35;5.13;;;;;;;26.02;54.14;98477.53;5144432;27;20511;-92
2021/09/17 09:43:36;;;;;;;24.43;5.83;;;;;;;26.19;53.92;98452.25;5145210;27;20066;-93
2021/09/17 09:46:21;;;;;;;;;;;;;;;26.46;53.53;98464.22;5149191;27;20484;-93
2021/09/17 09:49:06;;;;;;;18.60;6.03;;;;;;;26.61;52.67;98456.44;5143621;27;19920;-91
2021/09/17 09:51:35;;;;;;;20.63;5.78;;;;;;;26.54;52.83;98452.53;5140868;27;20111;-91
2021/09/17 09:54:04;;;;;;;24.55;5.30;;;;;;;26.34;53.56;98457.22;5141602;27;20100;-92
2021/09/17 09:56:31;;;;;;;18.33;5.93;;;;;;;26.17;53.56;98467.88;5145157;27;20096;-93
2021/09/17 09:59:02;;;;;;;19.05;5.03;;;;;;;25.83;54.53;98443.84;5149866;27;20046;-92
2021/09/17 10:01:34;;;;;;;15.27;4.90;;;;;;;25.93;53.90;98424.78;5148678;27;20064;-94
2021/09/17 10:04:01;;;;;;;28.23;5.75;;;;;;;25.95;54.58;98425.50;5144708;27;20043;-92
2021/09/17 10:06:27;;;;;;;16.38;5.05;;;;;;;25.77;56.96;98428.09;5141295;27;20074;-94
2021/09/17 10:08:55;;;;;;;17.30;5.28;;;;;;;25.54;60.05;98424.81;5145760;27;20046;-91
2021/09/17 10:11:22;;;;;;;20.23;5.80;;;;;;;25.09;61.26;98400.00;5144097;27;20088;-90
2021/09/17 10:13:49;;;;;;;24.83;6.05;;;;;;;24.82;61.41;98403.44;5148942;27;20043;-92
2021/09/17 10:16:17;;;;;;;24.25;5.95;;;;;;;24.61;62.55;98417.97;5143732;27;20064;-94
2021/09/17 10:18:45;;;;;;;22.90;6.47;;;;;;;24.48;64.16;98428.22;5148832;27;20046;-91
2021/09/17 10:21:13;;;;;;;25.80;6.47;;;;;;;24.31;66.05;98425.16;5141208;27;20519;-95
2021/09/17 10:23:44;;;;;;;22.13;5.88;;;;;;;24.10;64.44;98452.38;5144912;27;20047;-94
2021/09/17 10:26:15;;;;;;;28.13;6.32;;;;;;;23.88;66.30;98466.13;5145218;27;20035;-94
2021/09/17 10:29:04;;;;;;;19.88;5.70;;;;;;;23.34;69.06;98476.94;5153644;27;20035;-94
2021/09/17 10:31:40;;;;;;;18.02;5.50;;;;;;;23.06;69.80;98481.09;5144002;27;20043;-95
2021/09/17 10:34:28;;;;;;;12.02;4.20;;;;;;;22.20;67.34;98506.13;5141617;27;20043;-95
2021/09/17 10:36:54;;;;;;;16.08;4.15;;;;;;;21.38;71.82;98498.81;5135791;27;20130;-94
2021/09/17 10:39:20;;;;;;;19.38;6.07;;;;;;;20.29;77.47;98472.56;5145308;27;20042;-93
2021/09/17 10:42:06;;;;;;;18.67;5.78;;;;;;;19.79;79.29;98463.50;5144081;27;20047;-93
2021/09/17 10:45:08;;;;;;;25.33;8.73;;;;;;;19.59;87.14;98504.47;5142338;27;20050;-92
2021/09/17 10:47:58;;;;;;;19.98;6.00;;;;;;;19.25;89.33;98610.03;5145942;27;20051;-94
2021/09/17 10:50:38;;;;;;;14.23;3.60;;;;;;;18.93;88.36;98549.28;5154820;27;20069;-93
2021/09/17 10:53:05;;;;;;;14.73;3.67;;;;;;;19.68;76.90;98485.81;5161692;27;20376;-95
2021/09/17 10:56:02;;;;;;;14.68;5.20;;;;;;;19.43;90.90;98483.94;5147320;27;20042;-93
2021/09/17 10:58:31;;;;;;;15.57;6.18;;;;;;;18.91;93.92;98494.63;5141153;27;20065;-94
2021/09/17 11:01:00;;;;;;;20.02;6.05;;;;;;;18.88;97.21;98520.78;5138908;27;20099;-94
2021/09/17 11:03:57;;;;;;;14.40;4.93;;;;;;;18.73;92.26;98543.31;5140629;27;20129;-93
2021/09/17 11:06:28;;;;;;;8.98;3.90;;;;;;;18.27;90.07;98498.63;5138740;27;20036;-91
2021/09/17 11:08:56;;;;;;;9.88;3.60;;;;;;;18.22;93.45;98505.28;5138891;27;20043;-93
2021/09/17 11:11:24;;;;;;;8.38;4.15;;;;;;;17.89;89.86;98498.34;5137444;27;20491;-93
2021/09/17 11:13:53;;;;;;;8.98;3.35;;;;;;;17.89;93.20;98466.06;5123111;27;20047;-93
2021/09/17 11:16:20;;;;;;;;;;;;;;;17.83;91.24;98467.28;5123978;27;20039;-92
2021/09/17 11:18:59;;;;;;;12.65;3.42;;;;;;;17.82;91.90;98438.63;5158729;27;19919;-93
2021/09/17 11:21:26;;;;;;;12.40;3.70;;;;;;;18.02;92.21;98439.22;5158934;27;20146;-93